sensor_id;sensor_type;location;lat;lon;timestamp;P1;durP1;ratioP1;P2;durP2;ratioP2
45382;SDS011;42455;51.660;5.824;2022-12-07T00:00:22;13.0;;;12.0;;
45382;SDS011;42455;51.660;5.824;2022-12-07T00:05:29;14.0;;;12.0;;
45382;SDS011;42455;51.660;5.824;2022-12-07T00:10:35;13.0;;;11.5;;
45382;SDS011;42455;51.660;5.824;2022-12-07T00:15:41;13.0;;;11.0;;
45382;SDS011;42455;51.660;5.824;2022-12-07T00:20:47;14.0;;;13.0;;
45382;SDS011;42455;51.660;5.824;2022-12-07T00:25:53;14.0;;;13.0;;
45382;SDS011;42455;51.660;5.824;2022-12-07T00:31:00;14.0;;;13.0;;
45382;SDS011;42455;51.660;5.824;2022-12-07T00:36:10;14.0;;;12.5;;
45382;SDS011;42455;51.660;5.824;2022-12-07T00:41:13;15.0;;;13.0;;
45382;SDS011;42455;51.660;5.824;2022-12-07T00:46:19;15.5;;;14.0;;
45382;SDS011;42455;51.660;5.824;2022-12-07T00:51:25;15.0;;;13.0;;
45382;SDS011;42455;51.660;5.824;2022-12-07T00:56:31;15.0;;;13.0;;
45382;SDS011;42455;51.660;5.824;2022-12-07T01:01:37;15.0;;;14.0;;
45382;SDS011;42455;51.660;5.824;2022-12-07T01:06:43;16.0;;;14.0;;
45382;SDS011;42455;51.660;5.824;2022-12-07T01:11:49;16.0;;;14.0;;
45382;SDS011;42455;51.660;5.824;2022-12-07T01:16:55;16.0;;;14.0;;
45382;SDS011;42455;51.660;5.824;2022-12-07T01:22:02;16.5;;;15.0;;
45382;SDS011;42455;51.660;5.824;2022-12-07T01:27:08;16.0;;;15.0;;
45382;SDS011;42455;51.660;5.824;2022-12-07T01:32:14;17.0;;;15.0;;
45382;SDS011;42455;51.660;5.824;2022-12-07T01:42:26;17.0;;;15.0;;
45382;SDS011;42455;51.660;5.824;2022-12-07T01:47:33;16.0;;;14.0;;
45382;SDS011;42455;51.660;5.824;2022-12-07T01:52:41;16.0;;;14.0;;
45382;SDS011;42455;51.660;5.824;2022-12-07T01:57:47;16.0;;;14.0;;
45382;SDS011;42455;51.660;5.824;2022-12-07T02:02:53;16.0;;;14.0;;
45382;SDS011;42455;51.660;5.824;2022-12-07T02:07:57;15.5;;;14.0;;
45382;SDS011;42455;51.660;5.824;2022-12-07T02:13:08;16.0;;;14.0;;
45382;SDS011;42455;51.660;5.824;2022-12-07T02:18:52;16.0;;;14.0;;
45382;SDS011;42455;51.660;5.824;2022-12-07T02:24:27;17.0;;;14.0;;
45382;SDS011;42455;51.660;5.824;2022-12-07T02:29:44;16.0;;;14.0;;
45382;SDS011;42455;51.660;5.824;2022-12-07T02:33:36;15.0;;;13.0;;
45382;SDS011;42455;51.660;5.824;2022-12-07T02:38:38;15.0;;;13.0;;
45382;SDS011;42455;51.660;5.824;2022-12-07T02:43:42;14.0;;;12.0;;
45382;SDS011;42455;51.660;5.824;2022-12-07T02:48:46;14.0;;;12.0;;
45382;SDS011;42455;51.660;5.824;2022-12-07T02:53:52;13.0;;;12.0;;
45382;SDS011;42455;51.660;5.824;2022-12-07T02:59:41;14.0;;;12.0;;
45382;SDS011;42455;51.660;5.824;2022-12-07T03:04:27;15.0;;;12.0;;
45382;SDS011;42455;51.660;5.824;2022-12-07T03:09:27;15.0;;;12.0;;
45382;SDS011;42455;51.660;5.824;2022-12-07T03:14:18;14.0;;;12.0;;
45382;SDS011;42455;51.660;5.824;2022-12-07T03:19:25;13.0;;;11.0;;
45382;SDS011;42455;51.660;5.824;2022-12-07T03:24:31;14.0;;;12.0;;
45382;SDS011;42455;51.660;5.824;2022-12-07T03:29:38;13.0;;;11.0;;
45382;SDS011;42455;51.660;5.824;2022-12-07T03:34:44;14.0;;;10.0;;
45382;SDS011;42455;51.660;5.824;2022-12-07T03:39:57;13.0;;;10.5;;
45382;SDS011;42455;51.660;5.824;2022-12-07T03:44:54;13.0;;;10.0;;
45382;SDS011;42455;51.660;5.824;2022-12-07T03:50:02;12.0;;;10.0;;
45382;SDS011;42455;51.660;5.824;2022-12-07T03:55:11;12.0;;;10.0;;
45382;SDS011;42455;51.660;5.824;2022-12-07T04:00:14;12.0;;;9.0;;
45382;SDS011;42455;51.660;5.824;2022-12-07T04:05:19;10.5;;;9.0;;
45382;SDS011;42455;51.660;5.824;2022-12-07T04:10:27;13.0;;;9.0;;
45382;SDS011;42455;51.660;5.824;2022-12-07T04:15:32;11.5;;;9.0;;
45382;SDS011;42455;51.660;5.824;2022-12-07T04:20:38;11.5;;;9.0;;
45382;SDS011;42455;51.660;5.824;2022-12-07T04:25:44;13.0;;;9.0;;
45382;SDS011;42455;51.660;5.824;2022-12-07T04:30:50;13.0;;;9.0;;
45382;SDS011;42455;51.660;5.824;2022-12-07T04:35:56;11.0;;;9.0;;
45382;SDS011;42455;51.660;5.824;2022-12-07T04:41:04;11.0;;;9.0;;
45382;SDS011;42455;51.660;5.824;2022-12-07T04:46:09;10.0;;;7.0;;
45382;SDS011;42455;51.660;5.824;2022-12-07T04:51:16;10.0;;;7.0;;
45382;SDS011;42455;51.660;5.824;2022-12-07T04:56:22;9.0;;;6.0;;
45382;SDS011;42455;51.660;5.824;2022-12-07T05:01:28;11.0;;;7.0;;
45382;SDS011;42455;51.660;5.824;2022-12-07T05:06:34;9.0;;;6.0;;
45382;SDS011;42455;51.660;5.824;2022-12-07T05:11:40;8.0;;;6.0;;
45382;SDS011;42455;51.660;5.824;2022-12-07T05:16:47;8.0;;;5.0;;
45382;SDS011;42455;51.660;5.824;2022-12-07T05:21:52;7.0;;;6.0;;
45382;SDS011;42455;51.660;5.824;2022-12-07T05:26:59;7.0;;;5.0;;
45382;SDS011;42455;51.660;5.824;2022-12-07T05:32:05;7.0;;;5.0;;
45382;SDS011;42455;51.660;5.824;2022-12-07T05:37:11;7.0;;;5.0;;
45382;SDS011;42455;51.660;5.824;2022-12-07T05:42:17;10.5;;;7.0;;
45382;SDS011;42455;51.660;5.824;2022-12-07T05:47:24;9.0;;;7.0;;
45382;SDS011;42455;51.660;5.824;2022-12-07T05:52:30;9.0;;;8.0;;
45382;SDS011;42455;51.660;5.824;2022-12-07T05:57:36;11.0;;;8.0;;
45382;SDS011;42455;51.660;5.824;2022-12-07T06:02:42;11.0;;;8.0;;
45382;SDS011;42455;51.660;5.824;2022-12-07T06:07:48;9.0;;;8.0;;
45382;SDS011;42455;51.660;5.824;2022-12-07T06:12:54;10.5;;;8.0;;
45382;SDS011;42455;51.660;5.824;2022-12-07T06:18:01;10.0;;;7.0;;
45382;SDS011;42455;51.660;5.824;2022-12-07T06:23:07;10.0;;;7.0;;
45382;SDS011;42455;51.660;5.824;2022-12-07T06:28:13;9.0;;;7.5;;
45382;SDS011;42455;51.660;5.824;2022-12-07T06:33:19;7.5;;;7.0;;
45382;SDS011;42455;51.660;5.824;2022-12-07T06:38:25;9.0;;;7.0;;
45382;SDS011;42455;51.660;5.824;2022-12-07T06:43:32;9.0;;;6.0;;
45382;SDS011;42455;51.660;5.824;2022-12-07T06:48:38;8.0;;;6.0;;
45382;SDS011;42455;51.660;5.824;2022-12-07T06:53:44;8.0;;;6.0;;
45382;SDS011;42455;51.660;5.824;2022-12-07T06:58:50;9.0;;;5.5;;
45382;SDS011;42455;51.660;5.824;2022-12-07T07:03:57;7.0;;;5.0;;
45382;SDS011;42455;51.660;5.824;2022-12-07T07:09:03;6.0;;;5.0;;
45382;SDS011;42455;51.660;5.824;2022-12-07T07:14:09;8.0;;;5.0;;
45382;SDS011;42455;51.660;5.824;2022-12-07T07:19:15;9.0;;;6.0;;
45382;SDS011;42455;51.660;5.824;2022-12-07T07:24:21;9.5;;;6.0;;
45382;SDS011;42455;51.660;5.824;2022-12-07T07:29:28;11.0;;;7.0;;
45382;SDS011;42455;51.660;5.824;2022-12-07T07:34:34;10.0;;;7.0;;
45382;SDS011;42455;51.660;5.824;2022-12-07T07:39:40;12.0;;;7.0;;
45382;SDS011;42455;51.660;5.824;2022-12-07T07:44:46;11.0;;;7.0;;
45382;SDS011;42455;51.660;5.824;2022-12-07T07:49:53;9.0;;;7.0;;
45382;SDS011;42455;51.660;5.824;2022-12-07T07:54:59;10.0;;;8.0;;
45382;SDS011;42455;51.660;5.824;2022-12-07T08:00:06;9.0;;;7.5;;
45382;SDS011;42455;51.660;5.824;2022-12-07T08:05:12;10.0;;;7.0;;
45382;SDS011;42455;51.660;5.824;2022-12-07T08:10:17;11.0;;;8.0;;
45382;SDS011;42455;51.660;5.824;2022-12-07T08:15:23;10.0;;;7.0;;
45382;SDS011;42455;51.660;5.824;2022-12-07T08:20:29;13.0;;;8.0;;
45382;SDS011;42455;51.660;5.824;2022-12-07T08:25:35;10.0;;;8.0;;
45382;SDS011;42455;51.660;5.824;2022-12-07T08:30:41;11.0;;;8.0;;
45382;SDS011;42455;51.660;5.824;2022-12-07T08:35:47;14.0;;;9.0;;
45382;SDS011;42455;51.660;5.824;2022-12-07T08:40:53;17.0;;;11.0;;
45382;SDS011;42455;51.660;5.824;2022-12-07T08:46:06;14.0;;;9.0;;
45382;SDS011;42455;51.660;5.824;2022-12-07T08:51:05;12.0;;;9.0;;
45382;SDS011;42455;51.660;5.824;2022-12-07T08:56:11;16.0;;;11.0;;
45382;SDS011;42455;51.660;5.824;2022-12-07T09:01:17;20.0;;;13.0;;
45382;SDS011;42455;51.660;5.824;2022-12-07T09:06:23;20.5;;;16.0;;
45382;SDS011;42455;51.660;5.824;2022-12-07T09:11:30;18.0;;;13.0;;
45382;SDS011;42455;51.660;5.824;2022-12-07T09:16:36;14.0;;;12.0;;
45382;SDS011;42455;51.660;5.824;2022-12-07T09:21:42;17.0;;;10.0;;
45382;SDS011;42455;51.660;5.824;2022-12-07T09:26:48;11.0;;;9.0;;
45382;SDS011;42455;51.660;5.824;2022-12-07T09:31:55;12.0;;;9.0;;
45382;SDS011;42455;51.660;5.824;2022-12-07T09:37:01;15.0;;;10.0;;
45382;SDS011;42455;51.660;5.824;2022-12-07T09:42:07;14.0;;;9.0;;
45382;SDS011;42455;51.660;5.824;2022-12-07T09:47:13;12.0;;;9.0;;
45382;SDS011;42455;51.660;5.824;2022-12-07T09:52:28;11.0;;;9.0;;
45382;SDS011;42455;51.660;5.824;2022-12-07T09:57:33;12.0;;;8.0;;
45382;SDS011;42455;51.660;5.824;2022-12-07T10:02:48;10.0;;;7.0;;
45382;SDS011;42455;51.660;5.824;2022-12-07T10:07:38;10.0;;;7.0;;
45382;SDS011;42455;51.660;5.824;2022-12-07T10:13:01;8.0;;;6.0;;
45382;SDS011;42455;51.660;5.824;2022-12-07T10:17:51;8.0;;;6.0;;
45382;SDS011;42455;51.660;5.824;2022-12-07T10:22:59;8.0;;;5.0;;
45382;SDS011;42455;51.660;5.824;2022-12-07T10:28:10;8.0;;;5.0;;
45382;SDS011;42455;51.660;5.824;2022-12-07T10:33:21;7.0;;;4.0;;
45382;SDS011;42455;51.660;5.824;2022-12-07T10:38:16;6.0;;;4.0;;
45382;SDS011;42455;51.660;5.824;2022-12-07T10:43:21;5.0;;;3.0;;
45382;SDS011;42455;51.660;5.824;2022-12-07T10:48:40;5.0;;;3.0;;
45382;SDS011;42455;51.660;5.824;2022-12-07T10:54:14;6.0;;;3.0;;
45382;SDS011;42455;51.660;5.824;2022-12-07T11:00:08;5.0;;;3.0;;
45382;SDS011;42455;51.660;5.824;2022-12-07T11:05:02;6.0;;;4.0;;
45382;SDS011;42455;51.660;5.824;2022-12-07T11:10:27;6.0;;;3.0;;
45382;SDS011;42455;51.660;5.824;2022-12-07T11:15:17;6.5;;;3.0;;
45382;SDS011;42455;51.660;5.824;2022-12-07T11:19:32;5.0;;;3.0;;
45382;SDS011;42455;51.660;5.824;2022-12-07T11:24:13;5.0;;;2.0;;
45382;SDS011;42455;51.660;5.824;2022-12-07T11:30:13;6.0;;;2.0;;
45382;SDS011;42455;51.660;5.824;2022-12-07T11:35:11;5.0;;;2.0;;
45382;SDS011;42455;51.660;5.824;2022-12-07T11:39:37;5.0;;;2.0;;
45382;SDS011;42455;51.660;5.824;2022-12-07T11:44:50;5.0;;;2.0;;
45382;SDS011;42455;51.660;5.824;2022-12-07T11:49:47;6.0;;;2.0;;
45382;SDS011;42455;51.660;5.824;2022-12-07T11:54:48;4.5;;;2.0;;
45382;SDS011;42455;51.660;5.824;2022-12-07T12:00:00;4.0;;;2.0;;
45382;SDS011;42455;51.660;5.824;2022-12-07T12:05:12;4.0;;;2.0;;
45382;SDS011;42455;51.660;5.824;2022-12-07T12:10:16;5.0;;;2.0;;
45382;SDS011;42455;51.660;5.824;2022-12-07T12:16:55;4.0;;;2.0;;
45382;SDS011;42455;51.660;5.824;2022-12-07T12:21:21;5.0;;;3.0;;
45382;SDS011;42455;51.660;5.824;2022-12-07T12:25:27;5.0;;;3.0;;
45382;SDS011;42455;51.660;5.824;2022-12-07T12:30:34;4.5;;;3.0;;
45382;SDS011;42455;51.660;5.824;2022-12-07T12:35:38;4.0;;;2.0;;
45382;SDS011;42455;51.660;5.824;2022-12-07T12:40:45;6.0;;;3.0;;
45382;SDS011;42455;51.660;5.824;2022-12-07T12:45:50;6.0;;;3.0;;
45382;SDS011;42455;51.660;5.824;2022-12-07T12:51:37;6.0;;;3.0;;
45382;SDS011;42455;51.660;5.824;2022-12-07T12:56:51;6.0;;;3.0;;
45382;SDS011;42455;51.660;5.824;2022-12-07T13:01:39;5.0;;;2.0;;
45382;SDS011;42455;51.660;5.824;2022-12-07T13:06:36;4.0;;;3.0;;
45382;SDS011;42455;51.660;5.824;2022-12-07T13:16:41;5.0;;;2.0;;
45382;SDS011;42455;51.660;5.824;2022-12-07T13:21:43;4.0;;;2.0;;
45382;SDS011;42455;51.660;5.824;2022-12-07T13:26:41;3.0;;;1.0;;
45382;SDS011;42455;51.660;5.824;2022-12-07T13:31:46;3.0;;;1.0;;
45382;SDS011;42455;51.660;5.824;2022-12-07T13:36:53;2.0;;;1.0;;
45382;SDS011;42455;51.660;5.824;2022-12-07T13:41:59;2.0;;;1.0;;
45382;SDS011;42455;51.660;5.824;2022-12-07T13:47:19;2.0;;;1.0;;
45382;SDS011;42455;51.660;5.824;2022-12-07T13:52:24;3.0;;;1.0;;
45382;SDS011;42455;51.660;5.824;2022-12-07T13:57:17;3.0;;;1.0;;
45382;SDS011;42455;51.660;5.824;2022-12-07T14:02:28;2.0;;;1.0;;
45382;SDS011;42455;51.660;5.824;2022-12-07T14:07:34;4.0;;;1.0;;
45382;SDS011;42455;51.660;5.824;2022-12-07T14:12:36;2.5;;;1.0;;
45382;SDS011;42455;51.660;5.824;2022-12-07T14:17:49;3.0;;;1.0;;
45382;SDS011;42455;51.660;5.824;2022-12-07T14:22:53;3.0;;;1.0;;
45382;SDS011;42455;51.660;5.824;2022-12-07T14:27:55;3.0;;;1.0;;
45382;SDS011;42455;51.660;5.824;2022-12-07T14:33:00;3.0;;;1.0;;
45382;SDS011;42455;51.660;5.824;2022-12-07T14:38:07;4.0;;;2.0;;
45382;SDS011;42455;51.660;5.824;2022-12-07T14:43:12;4.0;;;1.0;;
45382;SDS011;42455;51.660;5.824;2022-12-07T14:48:18;4.0;;;2.0;;
45382;SDS011;42455;51.660;5.824;2022-12-07T14:53:39;5.0;;;2.0;;
45382;SDS011;42455;51.660;5.824;2022-12-07T14:58:31;3.0;;;2.0;;
45382;SDS011;42455;51.660;5.824;2022-12-07T15:03:37;2.0;;;1.0;;
45382;SDS011;42455;51.660;5.824;2022-12-07T15:08:43;4.0;;;2.0;;
45382;SDS011;42455;51.660;5.824;2022-12-07T15:13:49;4.0;;;1.0;;
45382;SDS011;42455;51.660;5.824;2022-12-07T15:18:56;2.0;;;1.0;;
45382;SDS011;42455;51.660;5.824;2022-12-07T15:24:02;4.0;;;1.0;;
45382;SDS011;42455;51.660;5.824;2022-12-07T15:29:09;3.0;;;1.0;;
45382;SDS011;42455;51.660;5.824;2022-12-07T15:34:14;4.0;;;2.0;;
45382;SDS011;42455;51.660;5.824;2022-12-07T15:39:21;3.0;;;1.0;;
45382;SDS011;42455;51.660;5.824;2022-12-07T15:44:27;3.0;;;1.0;;
45382;SDS011;42455;51.660;5.824;2022-12-07T15:49:33;3.5;;;1.0;;
45382;SDS011;42455;51.660;5.824;2022-12-07T15:54:39;2.0;;;1.0;;
45382;SDS011;42455;51.660;5.824;2022-12-07T15:59:45;3.0;;;1.0;;
45382;SDS011;42455;51.660;5.824;2022-12-07T16:04:52;3.0;;;1.0;;
45382;SDS011;42455;51.660;5.824;2022-12-07T16:09:58;2.0;;;1.0;;
45382;SDS011;42455;51.660;5.824;2022-12-07T16:15:04;3.0;;;1.0;;
45382;SDS011;42455;51.660;5.824;2022-12-07T16:20:10;3.0;;;1.0;;
45382;SDS011;42455;51.660;5.824;2022-12-07T16:25:16;3.0;;;1.0;;
45382;SDS011;42455;51.660;5.824;2022-12-07T16:30:23;3.0;;;1.0;;
45382;SDS011;42455;51.660;5.824;2022-12-07T16:35:29;4.0;;;2.0;;
45382;SDS011;42455;51.660;5.824;2022-12-07T16:40:35;3.0;;;2.0;;
45382;SDS011;42455;51.660;5.824;2022-12-07T16:45:41;4.0;;;2.0;;
45382;SDS011;42455;51.660;5.824;2022-12-07T16:50:47;3.0;;;3.0;;
45382;SDS011;42455;51.660;5.824;2022-12-07T16:55:54;3.5;;;2.0;;
45382;SDS011;42455;51.660;5.824;2022-12-07T17:01:00;3.0;;;3.0;;
45382;SDS011;42455;51.660;5.824;2022-12-07T17:06:14;5.0;;;3.0;;
45382;SDS011;42455;51.660;5.824;2022-12-07T17:11:13;6.0;;;5.0;;
45382;SDS011;42455;51.660;5.824;2022-12-07T17:16:18;5.0;;;4.0;;
45382;SDS011;42455;51.660;5.824;2022-12-07T17:21:25;5.0;;;4.0;;
45382;SDS011;42455;51.660;5.824;2022-12-07T17:26:31;7.0;;;5.0;;
45382;SDS011;42455;51.660;5.824;2022-12-07T17:31:37;7.0;;;6.0;;
45382;SDS011;42455;51.660;5.824;2022-12-07T17:36:43;8.0;;;7.0;;
45382;SDS011;42455;51.660;5.824;2022-12-07T17:41:49;7.0;;;7.0;;
45382;SDS011;42455;51.660;5.824;2022-12-07T17:46:56;10.0;;;8.0;;
45382;SDS011;42455;51.660;5.824;2022-12-07T17:52:02;11.0;;;8.0;;
45382;SDS011;42455;51.660;5.824;2022-12-07T17:57:08;10.0;;;8.0;;
45382;SDS011;42455;51.660;5.824;2022-12-07T18:02:14;10.0;;;9.0;;
45382;SDS011;42455;51.660;5.824;2022-12-07T18:07:21;9.0;;;8.0;;
45382;SDS011;42455;51.660;5.824;2022-12-07T18:12:27;9.0;;;8.0;;
45382;SDS011;42455;51.660;5.824;2022-12-07T18:17:33;9.0;;;8.0;;
45382;SDS011;42455;51.660;5.824;2022-12-07T18:22:39;10.0;;;9.0;;
45382;SDS011;42455;51.660;5.824;2022-12-07T18:27:45;9.5;;;8.5;;
45382;SDS011;42455;51.660;5.824;2022-12-07T18:32:52;9.0;;;8.0;;
45382;SDS011;42455;51.660;5.824;2022-12-07T18:37:58;10.5;;;9.0;;
45382;SDS011;42455;51.660;5.824;2022-12-07T18:43:05;10.0;;;9.0;;
45382;SDS011;42455;51.660;5.824;2022-12-07T18:48:10;9.0;;;8.0;;
45382;SDS011;42455;51.660;5.824;2022-12-07T18:53:16;9.0;;;8.0;;
45382;SDS011;42455;51.660;5.824;2022-12-07T18:58:23;9.0;;;8.0;;
45382;SDS011;42455;51.660;5.824;2022-12-07T19:03:29;9.0;;;8.0;;
45382;SDS011;42455;51.660;5.824;2022-12-07T19:08:35;10.0;;;8.0;;
45382;SDS011;42455;51.660;5.824;2022-12-07T19:13:41;9.0;;;8.0;;
45382;SDS011;42455;51.660;5.824;2022-12-07T19:18:48;9.0;;;8.0;;
45382;SDS011;42455;51.660;5.824;2022-12-07T19:23:54;9.0;;;8.0;;
45382;SDS011;42455;51.660;5.824;2022-12-07T19:29:00;8.0;;;7.0;;
45382;SDS011;42455;51.660;5.824;2022-12-07T19:34:07;9.0;;;8.0;;
45382;SDS011;42455;51.660;5.824;2022-12-07T19:39:12;10.0;;;8.0;;
45382;SDS011;42455;51.660;5.824;2022-12-07T19:44:20;9.0;;;8.0;;
45382;SDS011;42455;51.660;5.824;2022-12-07T19:49:25;8.0;;;7.0;;
45382;SDS011;42455;51.660;5.824;2022-12-07T19:54:30;9.0;;;8.0;;
45382;SDS011;42455;51.660;5.824;2022-12-07T19:59:36;11.0;;;9.0;;
45382;SDS011;42455;51.660;5.824;2022-12-07T20:04:42;10.0;;;9.0;;
45382;SDS011;42455;51.660;5.824;2022-12-07T20:09:48;11.0;;;9.0;;
45382;SDS011;42455;51.660;5.824;2022-12-07T20:14:55;12.0;;;11.0;;
45382;SDS011;42455;51.660;5.824;2022-12-07T20:20:01;11.0;;;10.0;;
45382;SDS011;42455;51.660;5.824;2022-12-07T20:25:08;10.0;;;9.0;;
45382;SDS011;42455;51.660;5.824;2022-12-07T20:30:14;11.0;;;10.0;;
45382;SDS011;42455;51.660;5.824;2022-12-07T20:35:20;9.0;;;8.0;;
45382;SDS011;42455;51.660;5.824;2022-12-07T20:40:26;10.0;;;9.0;;
45382;SDS011;42455;51.660;5.824;2022-12-07T20:45:32;10.0;;;9.0;;
45382;SDS011;42455;51.660;5.824;2022-12-07T20:50:38;10.0;;;9.0;;
45382;SDS011;42455;51.660;5.824;2022-12-07T20:55:45;10.0;;;8.0;;
45382;SDS011;42455;51.660;5.824;2022-12-07T21:00:51;8.0;;;7.0;;
45382;SDS011;42455;51.660;5.824;2022-12-07T21:06:00;7.0;;;6.0;;
45382;SDS011;42455;51.660;5.824;2022-12-07T21:11:05;6.0;;;5.0;;
45382;SDS011;42455;51.660;5.824;2022-12-07T21:16:10;6.0;;;5.0;;
45382;SDS011;42455;51.660;5.824;2022-12-07T21:21:17;6.0;;;5.0;;
45382;SDS011;42455;51.660;5.824;2022-12-07T21:26:22;6.0;;;5.0;;
45382;SDS011;42455;51.660;5.824;2022-12-07T21:31:28;6.0;;;5.0;;
45382;SDS011;42455;51.660;5.824;2022-12-07T21:36:34;7.0;;;5.0;;
45382;SDS011;42455;51.660;5.824;2022-12-07T21:41:40;6.0;;;5.0;;
45382;SDS011;42455;51.660;5.824;2022-12-07T21:46:47;5.5;;;5.0;;
45382;SDS011;42455;51.660;5.824;2022-12-07T21:51:53;7.0;;;5.0;;
45382;SDS011;42455;51.660;5.824;2022-12-07T21:56:59;7.0;;;5.0;;
45382;SDS011;42455;51.660;5.824;2022-12-07T22:02:05;7.0;;;5.0;;
45382;SDS011;42455;51.660;5.824;2022-12-07T22:07:11;7.0;;;5.0;;
45382;SDS011;42455;51.660;5.824;2022-12-07T22:12:17;7.0;;;5.0;;
45382;SDS011;42455;51.660;5.824;2022-12-07T22:17:24;6.0;;;5.0;;
45382;SDS011;42455;51.660;5.824;2022-12-07T22:22:30;8.0;;;5.0;;
45382;SDS011;42455;51.660;5.824;2022-12-07T22:27:36;6.0;;;5.0;;
45382;SDS011;42455;51.660;5.824;2022-12-07T22:32:42;7.0;;;5.0;;
45382;SDS011;42455;51.660;5.824;2022-12-07T22:37:49;6.0;;;5.0;;
45382;SDS011;42455;51.660;5.824;2022-12-07T22:42:55;7.0;;;5.0;;
45382;SDS011;42455;51.660;5.824;2022-12-07T22:48:01;6.0;;;5.0;;
45382;SDS011;42455;51.660;5.824;2022-12-07T22:53:07;5.0;;;5.0;;
45382;SDS011;42455;51.660;5.824;2022-12-07T22:58:13;5.0;;;5.0;;
45382;SDS011;42455;51.660;5.824;2022-12-07T23:03:20;7.0;;;4.0;;
45382;SDS011;42455;51.660;5.824;2022-12-07T23:08:26;5.0;;;4.0;;
45382;SDS011;42455;51.660;5.824;2022-12-07T23:13:32;5.0;;;4.0;;
45382;SDS011;42455;51.660;5.824;2022-12-07T23:18:39;6.0;;;4.0;;
45382;SDS011;42455;51.660;5.824;2022-12-07T23:23:44;5.0;;;4.0;;
45382;SDS011;42455;51.660;5.824;2022-12-07T23:28:51;7.0;;;5.0;;
45382;SDS011;42455;51.660;5.824;2022-12-07T23:33:57;6.0;;;5.0;;
45382;SDS011;42455;51.660;5.824;2022-12-07T23:39:03;7.0;;;6.0;;
45382;SDS011;42455;51.660;5.824;2022-12-07T23:44:10;7.0;;;7.0;;
45382;SDS011;42455;51.660;5.824;2022-12-07T23:49:16;8.5;;;7.0;;
45382;SDS011;42455;51.660;5.824;2022-12-07T23:54:22;9.0;;;8.0;;
45382;SDS011;42455;51.660;5.824;2022-12-07T23:59:28;11.0;;;9.0;;
